Архив погоды в Николо-Поломе

Метеограмма Николо-Полома
Воскресенье, 24 Июня
Время местн. Темп Ветер Видим Явления Облачность нижн/средн/верх Атм. давл. Влжн Точка росы ВНГО R Сост. почвы Tg s
Напр Скр Прв ур.ст ур.м изм
15:00 +30.6° Ю,Ю-З 4 - 50 км - облачно с прояснениями 747 759 +0.1 35% +13.2° 1 км - - - -
12:00 +30.5° Ю 3 - 50 км - облачно с прояснениями 747 759 +0.1 35% +13.2° 1 км - - - -
09:00 +27.1° Ю 2 - 50 км - переменная облачность 747 759 0 58% +18.2° более 2.5 км - - - -
06:00 +20° В 1 - 15 км - переменная облачность 747 760 0 86% +17.6° более 2.5 км - Влажная (без луж) - -
03:00 +17.2° В 1 - 8 км дымка переменная облачность 747 760 +0.1 96% +16.5° более 2.5 км - - - -
00:00 +18.1° С-В 1 - 4 км дымка незначительная облачность 747 760 +0.4 95% +17.3° более 2.5 км - - - -
Суббота, 23 Июня
Время местн. Темп Ветер Видим Явления Облачность нижн/средн/верх Атм. давл. Влжн Точка росы ВНГО R Сост. почвы Tg s
Напр Скр Прв ур.ст ур.м изм
21:00 +23.4° С,С-В 1 - 50 км - переменная облачность 746 759 +0.1 69% +17.5° более 2.5 км - - - -
18:00 +27.6° З,С-З 1 - 50 км - облачно с прояснениями 746 759 0 53% +17.2° 1 км - - - -
15:00 +27.7° З,С-З 2 - 50 км - переменная облачность 746 759 +0.1 52% +16.9° 1 км - - - -
12:00 +25.1° З 2 - 50 км - преимущественно облачно 746 759 +0.6 62% +17.3° - - - - -
09:00 +24° З 1 - 50 км - переменная облачность 746 758 +0.3 60% +15.7° более 2.5 км - - - -
06:00 +18.6° Ю-З 2 - 50 км - переменная облачность 745 758 +0.4 77% +14.4° - - Влажная (без луж) - -
03:00 +14.7° Ю 2 - 20 км - облачно с прояснениями 745 758 +0.1 90% +13° более 2.5 км - - - -
00:00 +16.2° Ю 1 - 20 км - преимущественно облачно 745 758 -0.1 83% +13.4° более 2.5 км - - - -
Пятница, 22 Июня
Время местн. Темп Ветер Видим Явления Облачность нижн/средн/верх Атм. давл. Влжн Точка росы ВНГО R Сост. почвы Tg s
Напр Скр Прв ур.ст ур.м изм
21:00 +20.1° Ю 2 - 50 км - облачно с прояснениями 745 758 0 66% +13.6° более 2.5 км - - - -
18:00 +24.1° Ю,Ю-З 2 - 50 км - переменная облачность 745 758 -0.5 52% +13.7° 1 км 0 - - -
15:00 +25.4° З 1 - 50 км - переменная облачность 745 758 -0.5 41% +11.2° 1 км - - - -
12:00 +23° С-З 2 - 50 км - облачно с прояснениями 746 759 -0.2 42% +9.4° 1 км - - - -
09:00 +20.2° З 2 - 50 км - преимущественно облачно 746 759 +0.4 48% +9° более 2.5 км - - - -
06:00 +12.7° З 1 - 50 км - переменная облачность 746 759 +0.6 79% +9.2° более 2.5 км - Влажная (без луж) - -
03:00 +8.7° З 2 - 20 км - переменная облачность 745 759 +0.9 87% +6.6° более 2.5 км - - - -
00:00 +9.9° З 2 - 20 км - переменная облачность 744 758 +1.2 74% +5.5° более 2.5 км - - - -
Четверг, 21 Июня
Время местн. Темп Ветер Видим Явления Облачность нижн/средн/верх Атм. давл. Влжн Точка росы ВНГО R Сост. почвы Tg s
Напр Скр Прв ур.ст ур.м изм
21:00 +15.2° З,С-З 2 - 50 км - переменная облачность 743 756 +1.4 49% +4.5° более 2.5 км - - - -
18:00 +19.9° С-З 6 - 50 км - переменная облачность 742 755 +1.1 31% +2.3° 1 км - - - -
15:00 +20.2° С-З 6 13 50 км - переменная облачность 740 753 +1 34% +3.9° 1 км - - - -
12:00 +19.3° З,С-З 7 16 50 км - переменная облачность 739 752 +0.2 39% +5° 1 км - - - -